Time;durP1;ratioP1;P1;durP2;ratioP2;P2;SDS_P1;SDS_P2;PMS_P1;PMS_P2;Temp;Humidity;BMP_temperature;BMP_pressure;BME280_temperature;BME280_humidity;BME280_pressure;Samples;Min_cycle;Max_cycle;Signal;HPM_P1;HPM_P2
2021/12/29 00:00:29;;;;;;;32.83;17.95;;;;;;;-2.98;80.93;97980.70;1795699;80;21022;-69
2021/12/29 00:03:00;;;;;;;33.23;18.35;;;;;;;-3.00;80.75;97987.58;1796093;80;21657;-69
2021/12/29 00:05:27;;;;;;;35.75;19.45;;;;;;;-3.04;80.78;97979.53;1796907;80;21002;-70
2021/12/29 00:07:53;;;;;;;34.65;17.62;;;;;;;-3.06;80.99;97991.58;1796821;80;21030;-70
2021/12/29 00:10:19;;;;;;;38.05;19.20;;;;;;;-3.12;81.05;97985.69;1796973;80;20970;-69
2021/12/29 00:12:51;;;;;;;36.85;18.30;;;;;;;-3.14;80.97;97984.88;1796905;80;21468;-69
2021/12/29 00:15:17;;;;;;;37.28;18.52;;;;;;;-3.15;81.06;97980.59;1796357;80;21022;-69
2021/12/29 00:17:45;;;;;;;33.83;17.95;;;;;;;-3.19;81.13;97966.56;1796915;80;21033;-70
2021/12/29 00:20:15;;;;;;;38.90;17.80;;;;;;;-3.19;80.95;97978.14;1796895;80;20990;-69
2021/12/29 00:22:41;;;;;;;37.20;19.05;;;;;;;-3.19;80.95;97978.14;1797009;80;20978;-70
2021/12/29 00:25:09;;;;;;;34.65;17.60;;;;;;;-3.14;80.86;97984.03;1796904;80;20994;-70
2021/12/29 00:27:36;;;;;;;38.02;18.57;;;;;;;-3.10;80.91;97983.08;1796968;80;21026;-69
2021/12/29 00:30:04;;;;;;;35.00;17.75;;;;;;;-3.20;80.88;97983.73;1797048;80;21448;-69
2021/12/29 00:32:30;;;;;;;33.65;18.27;;;;;;;-3.21;80.89;97985.05;1796998;80;20982;-69
2021/12/29 00:34:55;;;;;;;35.20;17.90;;;;;;;-3.24;81.06;97984.64;1796920;80;21018;-70
2021/12/29 00:37:21;;;;;;;38.48;19.10;;;;;;;-3.15;80.89;97988.76;1797075;80;21463;-69
2021/12/29 00:39:47;;;;;;;34.18;17.30;;;;;;;-3.19;80.86;97988.42;1796893;80;20987;-70
2021/12/29 00:42:13;;;;;;;31.77;17.02;;;;;;;-3.26;80.77;97985.57;1796837;80;21017;-69
2021/12/29 00:44:39;;;;;;;33.40;18.12;;;;;;;-3.22;80.90;97981.63;1796947;80;21086;-70
2021/12/29 00:47:05;;;;;;;35.33;17.57;;;;;;;-3.20;80.80;97978.59;1795551;80;21045;-70
2021/12/29 00:49:34;;;;;;;34.53;18.95;;;;;;;-3.22;80.86;97973.92;1795498;80;21082;-70
2021/12/29 00:52:01;;;;;;;31.07;17.70;;;;;;;-3.22;80.84;97979.06;1794912;80;21058;-69
2021/12/29 00:54:27;;;;;;;;;;;;;;;-3.35;80.74;97976.31;1798388;80;21034;-68
2021/12/29 00:56:54;;;;;;;33.20;17.90;;;;;;;-3.31;80.99;97974.95;1796060;80;20139;-69
2021/12/29 00:59:19;;;;;;;33.90;17.87;;;;;;;-3.23;80.73;97986.35;1795712;80;21060;-69
2021/12/29 01:01:47;;;;;;;31.15;18.48;;;;;;;-3.22;80.73;97979.06;1795717;80;21061;-69
2021/12/29 01:04:14;;;;;;;37.63;17.90;;;;;;;-3.24;80.45;97977.38;1796859;80;20963;-69
2021/12/29 01:06:41;;;;;;;33.30;17.75;;;;;;;-3.23;80.59;97963.22;1796897;80;20995;-70
2021/12/29 01:09:07;;;;;;;35.25;17.02;;;;;;;-3.22;80.42;97964.92;1796880;80;21034;-70
2021/12/29 01:11:33;;;;;;;33.45;16.50;;;;;;;-3.33;80.60;97956.56;1796808;80;21026;-70
2021/12/29 01:13:58;;;;;;;32.17;16.65;;;;;;;-3.26;80.57;97949.13;1796934;80;20986;-69
2021/12/29 01:19:17;;;;;;;36.17;17.92;;;;;;;-3.30;80.54;97947.52;1796881;80;20982;-69
2021/12/29 01:21:47;;;;;;;35.80;17.40;;;;;;;-3.23;80.48;97943.93;1796827;80;21048;-68
2021/12/29 01:24:13;;;;;;;40.55;18.75;;;;;;;-3.36;80.65;97947.20;1796829;80;20943;-69
2021/12/29 01:26:42;;;;;;;38.65;17.87;;;;;;;-3.35;80.87;97941.16;1797149;80;21507;-69
2021/12/29 01:29:10;;;;;;;36.58;17.85;;;;;;;-3.28;80.56;97929.04;1796860;80;21042;-69
2021/12/29 01:31:37;;;;;;;33.02;17.35;;;;;;;-3.25;80.51;97928.98;1796948;80;21039;-69
2021/12/29 01:34:05;;;;;;;34.60;17.45;;;;;;;-3.33;80.35;97920.57;1796827;80;21029;-69
2021/12/29 01:36:36;;;;;;;33.70;17.20;;;;;;;-3.34;80.53;97925.33;1796821;80;21025;-70
2021/12/29 01:39:07;;;;;;;36.58;17.27;;;;;;;-3.29;80.40;97920.94;1796816;80;20986;-69
2021/12/29 01:41:33;;;;;;;33.88;17.95;;;;;;;-3.34;80.50;97912.02;1796919;80;20982;-70
2021/12/29 01:44:00;;;;;;;34.10;16.93;;;;;;;-3.42;80.63;97923.34;1796827;80;21022;-69
2021/12/29 01:46:25;;;;;;;35.50;18.10;;;;;;;-3.45;80.71;97926.84;1796905;80;21038;-70
2021/12/29 01:48:51;;;;;;;42.15;18.40;;;;;;;-3.54;80.77;97925.30;1796807;80;21051;-69
2021/12/29 01:51:19;;;;;;;35.83;17.10;;;;;;;-3.44;80.74;97922.53;1796818;80;20951;-69
2021/12/29 01:54:01;;;;;;;;;;;;;;;-3.50;80.58;97932.05;1799729;80;20997;-70
2021/12/29 01:56:16;;;;;;;38.85;16.85;;;;;;;-3.49;80.72;97933.77;1794202;80;20096;-69
2021/12/29 01:58:42;;;;;;;36.47;17.27;;;;;;;-3.45;80.66;97931.14;1797114;80;21461;-69
2021/12/29 02:01:09;;;;;;;43.05;19.12;;;;;;;-3.50;80.62;97932.05;1796829;80;20993;-70
2021/12/29 02:03:35;;;;;;;32.45;17.52;;;;;;;-3.47;80.55;97940.16;1796828;80;20994;-69
2021/12/29 02:06:01;;;;;;;34.50;18.00;;;;;;;-3.49;80.65;97938.06;1796965;80;21026;-69
2021/12/29 02:08:27;;;;;;;47.38;22.37;;;;;;;-3.52;80.76;97950.52;1792364;80;21004;-69
2021/12/29 02:10:56;;;;;;;38.15;17.55;;;;;;;-3.52;80.59;97949.68;1792146;80;21519;-69
2021/12/29 02:13:22;;;;;;;37.65;17.62;;;;;;;-3.58;80.57;97953.22;1791776;80;21002;-70
2021/12/29 02:15:49;;;;;;;32.55;17.15;;;;;;;-3.54;80.67;97954.84;1792065;80;20995;-69
2021/12/29 02:18:19;;;;;;;35.70;17.07;;;;;;;-3.60;80.88;97948.97;1792171;80;21557;-69
2021/12/29 02:20:49;;;;;;;35.20;18.10;;;;;;;-3.62;80.82;97946.88;1792108;80;21425;-69
2021/12/29 02:23:27;;;;;;;41.95;19.62;;;;;;;-3.54;80.96;97947.59;1792120;80;21472;-69
2021/12/29 02:25:52;;;;;;;38.80;17.98;;;;;;;-3.46;80.69;97952.11;1790890;80;20986;-68
2021/12/29 02:28:26;;;;;;;32.00;16.67;;;;;;;-3.39;80.51;97950.28;1791650;80;21111;-69
2021/12/29 02:30:53;;;;;;;32.40;17.30;;;;;;;-3.45;80.34;97949.13;1791973;80;21049;-70
2021/12/29 02:33:19;;;;;;;34.33;17.20;;;;;;;-3.34;80.40;97950.58;1792245;80;21023;-70
2021/12/29 02:35:45;;;;;;;32.60;17.75;;;;;;;-3.36;80.19;97939.94;1792089;80;21030;-69
2021/12/29 02:38:23;;;;;;;34.37;18.10;;;;;;;-3.34;80.09;97942.03;1792300;80;21021;-69
2021/12/29 02:40:57;;;;;;;29.42;16.93;;;;;;;-3.26;80.23;97947.84;1771451;77;62146;-39
2021/12/29 02:43:24;;;;;;;34.15;17.25;;;;;;;-3.27;80.01;97959.02;1672858;84;21710;-38
2021/12/29 02:45:58;;;;;;;38.45;18.40;;;;;;;-3.21;80.02;97962.73;1673955;86;21066;-39
2021/12/29 02:48:23;;;;;;;34.85;17.32;;;;;;;-3.10;80.03;97953.51;1672871;85;20979;-39
2021/12/29 02:50:49;;;;;;;34.50;18.10;;;;;;;-3.13;79.81;97956.14;1644922;87;21006;-39
2021/12/29 02:53:14;;;;;;;41.40;18.02;;;;;;;-3.09;79.65;97963.77;1688209;84;21006;-39
2021/12/29 02:55:41;;;;;;;36.60;17.67;;;;;;;-3.09;79.41;97962.48;1645320;86;21021;-38
2021/12/29 02:58:06;;;;;;;39.98;18.82;;;;;;;-3.08;79.63;97964.61;1645322;86;21013;-39
2021/12/29 03:00:32;;;;;;;36.75;18.62;;;;;;;-3.12;79.62;97957.39;1688181;85;21470;-38
2021/12/29 03:02:58;;;;;;;39.35;19.05;;;;;;;-3.05;79.65;97955.99;1645344;87;21078;-38
2021/12/29 03:05:26;;;;;;;39.90;17.52;;;;;;;-3.00;79.63;97959.28;1688146;85;20987;-38
2021/12/29 03:07:54;;;;;;;33.63;17.05;;;;;;;-3.05;79.56;97956.83;1645227;87;20994;-40
2021/12/29 03:10:19;;;;;;;34.65;17.85;;;;;;;-2.98;79.52;97948.09;1688096;84;21530;-39
2021/12/29 03:12:45;;;;;;;37.90;19.12;;;;;;;-2.89;79.39;97958.63;1645159;87;21014;-39
2021/12/29 03:15:11;;;;;;;34.03;16.70;;;;;;;-2.89;79.39;97958.63;1688094;85;21033;-40
2021/12/29 03:17:37;;;;;;;35.75;17.10;;;;;;;-2.86;79.18;97959.83;1645222;87;21068;-38
2021/12/29 03:20:04;;;;;;;36.90;18.15;;;;;;;-2.81;79.05;97954.14;1688216;85;21037;-38
2021/12/29 03:22:33;;;;;;;33.78;16.97;;;;;;;-2.81;78.98;97960.57;1645382;87;21009;-39
2021/12/29 03:24:58;;;;;;;35.28;18.00;;;;;;;-2.83;79.03;97960.22;1688118;85;21489;-38
2021/12/29 03:27:24;;;;;;;31.10;16.02;;;;;;;-2.84;79.05;97950.79;1645186;86;21053;-40
2021/12/29 03:29:50;;;;;;;33.18;17.15;;;;;;;-2.83;79.05;97945.62;1688172;85;20989;-40
2021/12/29 03:32:24;;;;;;;35.23;17.35;;;;;;;-2.79;79.04;97947.23;1645278;87;21665;-39
2021/12/29 03:34:43;;;;;;;;;;;;;;;-2.82;79.23;97953.75;1689445;84;21002;-38
2021/12/29 03:37:09;;;;;;;34.18;17.42;;;;;;;-2.97;79.32;97951.52;1688238;84;20113;-38
2021/12/29 03:39:38;;;;;;;32.50;17.17;;;;;;;-2.93;79.48;97955.28;1688372;85;20974;-39
2021/12/29 03:42:03;;;;;;;37.00;16.35;;;;;;;-2.88;79.40;97950.46;1679450;84;21929;-38
2021/12/29 03:44:29;;;;;;;33.70;17.15;;;;;;;-2.91;79.64;97950.08;1665098;85;20964;-39
2021/12/29 03:46:54;;;;;;;34.27;18.00;;;;;;;-2.83;79.57;97949.47;1665187;85;20995;-38
2021/12/29 03:49:20;;;;;;;36.98;17.85;;;;;;;-2.79;79.63;97950.25;1665137;85;21031;-39
2021/12/29 03:51:46;;;;;;;35.95;17.67;;;;;;;-2.84;79.66;97945.20;1665141;85;21560;-40
2021/12/29 03:54:11;;;;;;;34.70;17.75;;;;;;;-2.81;79.79;97943.02;1665068;85;21465;-39
2021/12/29 03:56:37;;;;;;;38.38;16.77;;;;;;;-2.81;79.79;97943.02;1665050;85;20999;-39
2021/12/29 03:59:03;;;;;;;32.78;17.90;;;;;;;-2.82;79.73;97952.47;1665212;85;21039;-40
2021/12/29 04:01:29;;;;;;;32.35;18.25;;;;;;;-2.84;79.95;97950.79;1665099;86;21567;-38
2021/12/29 04:03:54;;;;;;;35.68;18.42;;;;;;;-2.82;80.02;97958.89;1665188;85;21472;-39
2021/12/29 04:06:21;;;;;;;34.05;17.40;;;;;;;-2.79;79.97;97953.66;1665100;85;21043;-40
2021/12/29 04:08:49;;;;;;;38.13;17.35;;;;;;;-2.83;80.05;97955.91;1665157;85;20995;-40
2021/12/29 04:11:15;;;;;;;34.30;18.52;;;;;;;-2.85;80.07;97957.67;1665033;85;20987;-40
2021/12/29 04:13:43;;;;;;;33.37;17.23;;;;;;;-2.80;80.04;97958.42;1665314;85;21003;-38
2021/12/29 04:16:16;;;;;;;;;;;;;;;-2.87;80.21;97964.58;1667556;85;21035;-40
2021/12/29 04:18:44;;;;;;;38.70;17.98;;;;;;;-2.78;80.32;97965.66;1666358;84;20424;-39
2021/12/29 04:21:04;;;;;;;35.83;17.75;;;;;;;-2.71;80.14;97971.48;1664289;85;20968;-39
2021/12/29 04:23:35;;;;;;;37.13;17.45;;;;;;;-2.70;80.02;97971.45;1665058;85;21054;-41
2021/12/29 04:26:04;;;;;;;33.20;18.12;;;;;;;-2.66;79.93;97968.82;1665039;86;21483;-38
2021/12/29 04:28:31;;;;;;;29.82;16.80;;;;;;;-2.61;79.82;97960.56;1665030;85;20971;-39
2021/12/29 04:31:02;;;;;;;35.00;17.77;;;;;;;-2.61;79.85;97966.54;1665294;86;20983;-41
2021/12/29 04:33:29;;;;;;;33.83;18.12;;;;;;;-2.61;79.72;97966.99;1664984;85;21006;-40
2021/12/29 04:35:55;;;;;;;31.85;16.70;;;;;;;-2.59;79.67;97971.66;1665082;86;21003;-40
2021/12/29 04:38:23;;;;;;;32.75;17.82;;;;;;;-2.54;79.75;97973.23;1665031;85;21382;-39
2021/12/29 04:40:53;;;;;;;32.28;18.07;;;;;;;-2.55;79.66;97975.84;1665015;85;21039;-40
2021/12/29 04:43:19;;;;;;;30.48;15.83;;;;;;;-2.50;79.65;97968.86;1682257;84;21067;-40
2021/12/29 04:45:46;;;;;;;34.30;17.55;;;;;;;-2.56;79.63;97971.59;1688100;84;21027;-41
2021/12/29 04:48:13;;;;;;;34.08;18.52;;;;;;;-2.50;79.58;97967.58;1688058;85;21038;-39
2021/12/29 04:50:50;;;;;;;34.65;17.52;;;;;;;-2.54;79.76;97974.97;1687914;84;20995;-38
2021/12/29 04:53:11;;;;;;;30.60;16.77;;;;;;;-2.57;79.83;97973.30;1688852;83;21070;-39
2021/12/29 04:55:38;;;;;;;31.40;17.70;;;;;;;-2.68;79.91;97983.00;1687930;85;21497;-39
2021/12/29 04:58:04;;;;;;;35.85;19.07;;;;;;;-2.56;79.99;97980.60;1688051;85;21011;-39
2021/12/29 05:00:31;;;;;;;35.92;18.35;;;;;;;-2.52;80.15;97988.65;1687948;85;20998;-40
2021/12/29 05:02:58;;;;;;;36.30;17.35;;;;;;;-2.49;80.09;97990.30;1688079;85;20983;-39
2021/12/29 05:10:43;;;;;;;36.98;18.42;;;;;;;-2.68;80.57;97988.60;1688033;85;20967;-41
2021/12/29 05:13:09;;;;;;;36.63;17.07;;;;;;;-2.57;80.69;97996.47;1688132;85;20995;-39
2021/12/29 05:15:35;;;;;;;38.60;18.35;;;;;;;-2.54;80.60;98001.55;1688014;85;21003;-39
2021/12/29 05:18:02;;;;;;;34.88;17.60;;;;;;;-2.50;80.50;98003.61;1687995;84;21492;-39
2021/12/29 05:20:30;;;;;;;34.03;18.87;;;;;;;-2.49;80.69;98003.16;1688242;84;21518;-41
2021/12/29 05:22:58;;;;;;;34.90;18.27;;;;;;;-2.45;80.67;98003.07;1687860;85;21507;-41
2021/12/29 05:25:26;;;;;;;38.38;19.42;;;;;;;-2.39;80.49;98000.79;1687921;85;21543;-40
2021/12/29 05:27:52;;;;;;;35.48;17.82;;;;;;;-2.40;80.42;98005.09;1687935;84;20963;-41
2021/12/29 05:30:19;;;;;;;45.12;18.60;;;;;;;-2.43;80.39;98000.02;1687860;83;21042;-40
2021/12/29 05:32:44;;;;;;;34.87;17.53;;;;;;;-2.37;80.10;98001.14;1688117;84;20991;-39
2021/12/29 05:35:11;;;;;;;32.05;17.62;;;;;;;-2.44;80.41;98004.74;1688011;84;21647;-40
2021/12/29 05:37:39;;;;;;;35.25;18.62;;;;;;;-2.55;80.68;97996.02;1688018;85;20991;-40
2021/12/29 05:40:07;;;;;;;32.25;18.55;;;;;;;-2.44;80.97;98000.88;1687905;84;21064;-41
2021/12/29 05:42:34;;;;;;;35.83;19.17;;;;;;;-2.40;81.00;98006.80;1687814;85;21042;-41
2021/12/29 05:45:06;;;;;;;37.30;19.15;;;;;;;-2.37;81.14;98007.58;1687888;84;21003;-40
2021/12/29 05:47:32;;;;;;;34.43;17.75;;;;;;;-2.33;80.96;98013.09;1687512;84;21476;-40
2021/12/29 05:49:58;;;;;;;41.48;19.35;;;;;;;-2.25;80.89;98009.48;1688009;84;20995;-40
2021/12/29 05:52:24;;;;;;;37.17;18.90;;;;;;;-2.24;81.03;98008.58;1687914;84;22055;-40
2021/12/29 05:54:50;;;;;;;31.90;18.55;;;;;;;-2.31;81.15;98005.30;1687878;85;20979;-40
2021/12/29 05:57:17;;;;;;;44.48;19.70;;;;;;;-2.21;81.13;98007.23;1687861;84;21035;-40
2021/12/29 05:59:43;;;;;;;33.33;18.05;;;;;;;-2.29;81.44;98009.13;1687865;85;20991;-40
2021/12/29 06:02:08;;;;;;;37.38;20.02;;;;;;;-2.28;81.51;98005.69;1687870;84;20975;-40
2021/12/29 06:04:34;;;;;;;33.85;18.48;;;;;;;-2.24;81.51;98011.16;1687895;85;20978;-41
2021/12/29 06:07:00;;;;;;;39.10;19.12;;;;;;;-2.20;81.43;98025.22;1688013;84;20995;-40
2021/12/29 06:09:26;;;;;;;37.70;18.80;;;;;;;-2.20;81.53;98024.35;1687894;85;21559;-40
2021/12/29 06:11:52;;;;;;;43.83;22.55;;;;;;;-2.21;81.75;98023.97;1687960;84;21532;-40
2021/12/29 06:14:17;;;;;;;45.58;22.87;;;;;;;-2.15;81.64;98026.38;1687907;85;21473;-41
2021/12/29 06:16:43;;;;;;;38.50;20.88;;;;;;;-2.13;81.75;98023.32;1687924;84;20994;-41
2021/12/29 06:19:10;;;;;;;40.92;21.12;;;;;;;-2.08;81.59;98033.52;1687868;85;21034;-40
2021/12/29 06:21:36;;;;;;;42.48;21.07;;;;;;;-2.06;81.87;98031.30;1688121;85;21026;-39
2021/12/29 06:24:02;;;;;;;36.45;20.25;;;;;;;-1.97;81.83;98035.39;1687870;85;20999;-41
2021/12/29 06:26:28;;;;;;;37.73;20.63;;;;;;;-2.01;81.76;98037.20;1688106;84;20995;-41
2021/12/29 06:28:55;;;;;;;41.55;20.50;;;;;;;-1.94;81.49;98034.87;1687937;84;21550;-40
2021/12/29 06:31:22;;;;;;;34.80;19.05;;;;;;;-1.92;81.54;98037.86;1688051;84;20999;-40
2021/12/29 06:33:49;;;;;;;43.85;21.15;;;;;;;-2.03;81.65;98025.25;1687956;85;20987;-41
2021/12/29 06:36:15;;;;;;;46.98;23.52;;;;;;;-1.98;81.65;98027.27;1687914;85;20979;-41
2021/12/29 06:38:40;;;;;;;44.33;22.75;;;;;;;-1.91;81.64;98036.96;1687894;84;21001;-41
2021/12/29 06:41:06;;;;;;;44.60;20.95;;;;;;;-1.95;81.77;98036.19;1687915;85;21626;-39
2021/12/29 06:43:32;;;;;;;40.65;22.27;;;;;;;-1.94;81.76;98039.19;1690997;85;21500;-40
2021/12/29 06:45:58;;;;;;;36.35;19.45;;;;;;;-1.93;81.69;98037.00;1692806;85;21030;-40
2021/12/29 06:48:23;;;;;;;43.02;21.42;;;;;;;-1.96;81.74;98043.53;1692876;84;21875;-39
2021/12/29 06:50:49;;;;;;;41.92;21.57;;;;;;;-1.96;81.92;98047.40;1692911;84;21030;-39
2021/12/29 06:53:15;;;;;;;39.63;20.85;;;;;;;-1.97;82.06;98043.95;1692774;84;21496;-40
2021/12/29 06:55:43;;;;;;;37.40;19.87;;;;;;;-1.91;82.04;98044.69;1692884;84;21483;-40
2021/12/29 06:58:12;;;;;;;38.17;19.67;;;;;;;-1.95;82.02;98049.08;1692890;84;20982;-41
2021/12/29 07:00:39;;;;;;;46.68;23.77;;;;;;;-1.96;82.06;98047.40;1692801;84;20982;-40
2021/12/29 07:03:05;;;;;;;39.92;21.52;;;;;;;-1.93;82.15;98048.59;1692969;84;20987;-40
2021/12/29 07:05:32;;;;;;;42.53;22.35;;;;;;;-1.99;82.48;98043.60;1692877;84;20998;-39
2021/12/29 07:07:58;;;;;;;47.00;22.90;;;;;;;-1.95;82.52;98053.81;1692997;85;21154;-39
2021/12/29 07:10:24;;;;;;;38.58;19.90;;;;;;;-1.94;82.56;98050.78;1692902;84;21002;-40
2021/12/29 07:12:50;;;;;;;43.38;22.60;;;;;;;-1.96;82.61;98057.25;1692990;85;21527;-41
2021/12/29 07:15:17;;;;;;;42.03;23.20;;;;;;;-1.88;82.62;98063.50;1692990;85;20994;-40
2021/12/29 07:17:43;;;;;;;43.60;22.70;;;;;;;-1.88;82.67;98065.23;1693202;85;20970;-41
2021/12/29 07:20:10;;;;;;;38.30;20.20;;;;;;;-1.81;82.76;98068.91;1692961;84;20986;-40
2021/12/29 07:22:36;;;;;;;41.65;23.20;;;;;;;-1.82;82.59;98063.78;1693089;84;21585;-40
2021/12/29 07:25:03;;;;;;;49.10;23.25;;;;;;;-1.80;82.64;98071.03;1692896;84;21026;-40
2021/12/29 07:27:29;;;;;;;41.35;22.25;;;;;;;-1.74;82.51;98073.47;1693081;85;21026;-39
2021/12/29 07:29:54;;;;;;;46.85;25.15;;;;;;;-1.75;82.34;98074.34;1692925;85;21037;-42
2021/12/29 07:32:20;;;;;;;48.48;27.02;;;;;;;-1.72;82.50;98077.30;1692946;85;20971;-41
2021/12/29 07:34:46;;;;;;;39.85;22.73;;;;;;;-1.78;82.75;98077.02;1692951;83;20991;-41
2021/12/29 07:37:12;;;;;;;43.20;22.95;;;;;;;-1.80;82.92;98077.47;1692960;84;21639;-40
2021/12/29 07:39:39;;;;;;;37.65;21.15;;;;;;;-1.72;82.60;98079.43;1693266;85;21506;-41
2021/12/29 07:42:05;;;;;;;45.63;22.07;;;;;;;-1.77;82.73;98085.98;1692944;84;20983;-42
2021/12/29 07:44:31;;;;;;;40.92;22.10;;;;;;;-1.83;83.00;98082.28;1693122;84;21066;-42
2021/12/29 07:46:59;;;;;;;40.48;21.80;;;;;;;-1.88;83.01;98075.55;1692925;84;21005;-41
2021/12/29 07:49:26;;;;;;;;;;;;;;;-1.83;82.98;98078.86;1695432;83;20999;-41
2021/12/29 07:51:52;;;;;;;57.75;24.65;;;;;;;-1.91;83.33;98076.48;1693073;84;20531;-41
2021/12/29 07:54:20;;;;;;;43.50;24.00;;;;;;;-1.92;83.62;98077.80;1693320;84;21038;-41
2021/12/29 07:56:45;;;;;;;51.77;26.27;;;;;;;-1.83;83.58;98086.14;1693040;85;21037;-41
2021/12/29 07:59:12;;;;;;;50.98;26.42;;;;;;;-1.83;83.62;98090.00;1692984;85;21526;-40
2021/12/29 08:01:40;;;;;;;54.80;26.52;;;;;;;-1.82;83.88;98090.84;1693011;84;20997;-41
2021/12/29 08:04:08;;;;;;;48.75;26.55;;;;;;;-1.84;84.19;98091.33;1692920;85;20978;-41
2021/12/29 08:06:35;;;;;;;47.33;26.40;;;;;;;-1.76;84.17;98090.71;1692928;84;20994;-42
2021/12/29 08:09:01;;;;;;;48.30;25.02;;;;;;;-1.70;84.11;98089.70;1693109;85;20975;-41
2021/12/29 08:11:27;;;;;;;49.70;26.25;;;;;;;-1.66;83.91;98094.73;1692943;85;21007;-41
2021/12/29 08:13:53;;;;;;;50.73;25.30;;;;;;;-1.70;83.62;98107.30;1692933;85;21029;-42
2021/12/29 08:16:19;;;;;;;50.63;24.87;;;;;;;-1.73;83.87;98107.36;1693004;85;21495;-41
2021/12/29 08:18:45;;;;;;;53.30;28.15;;;;;;;-1.70;83.97;98116.77;1692908;85;21007;-42
2021/12/29 08:21:11;;;;;;;57.75;28.83;;;;;;;-1.69;84.10;98122.31;1692844;83;21054;-41
2021/12/29 08:23:37;;;;;;;58.75;27.42;;;;;;;-1.69;84.26;98121.89;1692948;84;21034;-41
2021/12/29 08:26:03;;;;;;;53.23;29.23;;;;;;;-1.64;84.13;98128.20;1692908;85;21026;-41
2021/12/29 08:28:29;;;;;;;59.07;30.87;;;;;;;-1.65;84.38;98123.95;1693132;85;21015;-41
2021/12/29 08:30:56;;;;;;;50.08;24.55;;;;;;;-1.62;84.34;98124.72;1692891;85;21087;-40
2021/12/29 08:33:22;;;;;;;53.15;28.75;;;;;;;-1.59;84.28;98126.37;1692897;85;21034;-41
2021/12/29 08:35:48;;;;;;;57.00;27.85;;;;;;;-1.60;84.53;98119.50;1692860;84;21011;-41
2021/12/29 08:38:16;;;;;;;48.42;27.10;;;;;;;-1.65;84.58;98125.24;1692859;85;21035;-40
2021/12/29 08:40:43;;;;;;;54.88;29.42;;;;;;;-1.68;84.66;98126.15;1692874;85;21042;-41
2021/12/29 08:43:08;;;;;;;56.92;28.15;;;;;;;-1.61;84.90;98134.13;1691672;84;21006;-42
2021/12/29 08:45:37;;;;;;;61.95;30.48;;;;;;;-1.66;84.98;98150.60;1688003;84;21516;-42
2021/12/29 08:48:03;;;;;;;57.88;29.40;;;;;;;-1.51;84.77;98154.53;1688110;85;21062;-42
2021/12/29 08:50:31;;;;;;;56.58;29.52;;;;;;;-1.52;84.78;98148.98;1687969;85;21511;-42
2021/12/29 08:53:04;;;;;;;66.67;32.28;;;;;;;-1.59;84.84;98151.70;1688179;85;21014;-41
2021/12/29 08:55:32;;;;;;;73.37;33.35;;;;;;;-1.55;85.10;98153.34;1687912;84;20967;-40
2021/12/29 08:57:59;;;;;;;58.48;30.12;;;;;;;-1.53;84.99;98153.72;1687943;84;20964;-40
2021/12/29 09:00:26;;;;;;;67.70;32.23;;;;;;;-1.58;85.11;98148.25;1688133;85;20979;-42
2021/12/29 09:02:51;;;;;;;57.60;28.90;;;;;;;-1.51;84.89;98146.80;1688058;84;21050;-42
2021/12/29 09:05:18;;;;;;;73.67;35.48;;;;;;;-1.63;85.19;98146.22;1701238;80;21106;-41
2021/12/29 09:07:46;;;;;;;68.25;34.00;;;;;;;-1.48;85.38;98141.12;1762076;81;21504;-42
2021/12/29 09:10:16;;;;;;;66.53;32.15;;;;;;;-1.41;85.32;98139.24;1761980;81;20984;-40
2021/12/29 09:12:41;;;;;;;79.32;36.38;;;;;;;-1.30;85.13;98125.63;1761717;81;20991;-40
2021/12/29 09:15:09;;;;;;;71.82;33.65;;;;;;;-1.31;84.84;98129.10;1761958;81;21002;-40
2021/12/29 09:17:35;;;;;;;92.33;42.67;;;;;;;-1.27;84.60;98118.27;1760962;81;21078;-42
2021/12/29 09:20:02;;;;;;;80.28;36.40;;;;;;;-1.33;84.77;98114.09;1760875;81;21003;-42
2021/12/29 09:22:29;;;;;;;92.30;44.27;;;;;;;-1.27;84.60;98122.13;1760776;81;21054;-40
2021/12/29 09:24:55;;;;;;;75.08;38.38;;;;;;;-1.29;84.68;98109.69;1760652;81;21081;-40
2021/12/29 09:27:21;;;;;;;69.03;35.30;;;;;;;-1.22;84.59;98110.80;1760658;81;21006;-41
2021/12/29 09:29:47;;;;;;;94.32;45.00;;;;;;;-1.17;84.34;98119.23;1760783;81;21025;-41
2021/12/29 09:32:13;;;;;;;86.37;42.95;;;;;;;-1.09;84.40;98124.22;1761851;81;21034;-41
2021/12/29 09:34:39;;;;;;;97.17;46.60;;;;;;;-1.09;84.28;98129.80;1757235;81;20971;-41
2021/12/29 09:37:06;;;;;;;102.40;50.00;;;;;;;-1.01;84.12;98137.74;1703448;83;20963;-40
2021/12/29 09:39:32;;;;;;;;;;;;;;;-1.00;83.87;98138.16;1706703;83;20988;-41
2021/12/29 09:41:58;;;;;;;118.13;52.40;;;;;;;-1.01;83.80;98149.80;1695524;84;20147;-40
2021/12/29 09:44:24;;;;;;;121.37;51.30;;;;;;;-0.97;83.77;98152.25;1708520;83;20971;-40
2021/12/29 09:46:52;;;;;;;193.93;66.35;;;;;;;-1.10;83.98;98159.08;1705005;83;20971;-40
2021/12/29 09:49:18;;;;;;;162.95;66.47;;;;;;;-1.11;83.91;98162.53;1710477;83;21010;-41
2021/12/29 09:51:44;;;;;;;85.10;40.63;;;;;;;-1.07;84.05;98168.05;1711364;83;20998;-41
2021/12/29 09:54:11;;;;;;;78.45;38.48;;;;;;;-1.01;84.17;98172.58;1706933;83;21473;-47
2021/12/29 09:56:37;;;;;;;79.97;41.98;;;;;;;-0.94;83.94;98164.23;1715434;83;21015;-41
2021/12/29 09:59:03;;;;;;;85.10;42.23;;;;;;;-0.93;83.96;98165.91;1716921;83;21003;-41
2021/12/29 10:01:29;;;;;;;127.53;55.65;;;;;;;-0.85;83.76;98156.70;1707600;83;20989;-41
2021/12/29 10:03:56;;;;;;;161.12;66.92;;;;;;;-0.83;83.58;98162.20;1701243;83;20996;-40
2021/12/29 10:06:21;;;;;;;142.80;59.67;;;;;;;-0.83;83.58;98156.20;1713701;82;20992;-41
2021/12/29 10:08:49;;;;;;;122.40;53.80;;;;;;;-0.75;83.53;98153.41;1696327;84;20993;-40
2021/12/29 10:11:20;;;;;;;118.62;59.73;;;;;;;-0.70;83.42;98153.67;1690212;84;21457;-40
2021/12/29 10:13:48;;;;;;;117.17;59.38;;;;;;;-0.71;83.13;98157.16;1694632;84;21012;-42
2021/12/29 10:16:25;;;;;;;129.42;58.28;;;;;;;-0.75;83.17;98156.83;1694107;84;21465;-40
2021/12/29 10:19:10;;;;;;;113.17;50.23;;;;;;;-0.74;83.02;98157.69;1698451;84;20980;-39
2021/12/29 10:21:43;;;;;;;93.07;44.48;;;;;;;-0.71;83.11;98152.42;1715187;82;20979;-41
2021/12/29 10:24:10;;;;;;;103.10;48.63;;;;;;;-0.71;83.17;98150.70;1712431;82;21010;-41
2021/12/29 10:26:43;;;;;;;109.20;50.03;;;;;;;-0.67;83.08;98146.30;1715806;82;20979;-40
2021/12/29 10:29:14;;;;;;;96.20;44.25;;;;;;;-0.65;83.03;98149.23;1702157;84;21904;-41
2021/12/29 10:31:52;;;;;;;91.22;43.87;;;;;;;-0.57;82.94;98151.59;1722756;82;21033;-41
2021/12/29 10:34:23;;;;;;;95.83;45.08;;;;;;;-0.58;82.90;98155.08;1696811;84;21517;-42
2021/12/29 10:36:57;;;;;;;90.28;45.78;;;;;;;-0.52;82.75;98156.19;1698488;84;20994;-40
2021/12/29 10:39:31;;;;;;;87.67;44.65;;;;;;;-0.50;82.71;98155.69;1722646;82;20947;-42
2021/12/29 10:42:02;;;;;;;101.67;52.15;;;;;;;-0.54;82.65;98157.13;1695043;84;21020;-40
2021/12/29 10:44:40;;;;;;;100.12;46.53;;;;;;;-0.54;82.71;98161.00;1692819;84;20988;-41
2021/12/29 10:47:20;;;;;;;;;;;;;;;-0.47;82.67;98164.65;1699591;84;21028;-41
2021/12/29 10:50:00;;;;;;;90.20;44.90;;;;;;;-0.59;82.60;98167.58;1694616;84;20119;-41
2021/12/29 10:52:40;;;;;;;91.85;45.03;;;;;;;-0.50;82.50;98170.34;1728330;82;21020;-41
2021/12/29 10:55:11;;;;;;;94.85;43.95;;;;;;;-0.47;82.60;98167.23;1718741;82;20991;-42
2021/12/29 10:57:38;;;;;;;89.28;43.85;;;;;;;-0.46;82.69;98158.58;1718862;82;21511;-42
2021/12/29 11:00:08;;;;;;;92.75;43.68;;;;;;;-0.47;82.66;98162.06;1719932;82;20976;-41
2021/12/29 11:02:35;;;;;;;93.27;44.13;;;;;;;-0.36;82.58;98153.14;1716345;82;20995;-41
2021/12/29 11:05:07;;;;;;;82.40;44.15;;;;;;;-0.30;82.46;98155.11;1717423;82;21054;-41
2021/12/29 11:07:36;;;;;;;99.03;45.55;;;;;;;-0.31;82.46;98154.72;1710925;82;21104;-40
2021/12/29 11:10:15;;;;;;;87.78;44.33;;;;;;;-0.35;82.49;98151.81;1722451;83;21047;-41
2021/12/29 11:12:50;;;;;;;149.75;70.25;;;;;;;-0.29;82.56;98150.35;1715364;82;21051;-39
2021/12/29 11:15:27;;;;;;;118.42;53.00;;;;;;;-0.28;82.53;98155.91;1713456;82;21019;-41
2021/12/29 11:17:56;;;;;;;130.80;57.57;;;;;;;-0.20;82.50;98151.80;1715503;82;21021;-40
2021/12/29 11:20:26;;;;;;;93.60;45.17;;;;;;;-0.14;82.40;98152.92;1700648;84;21011;-41
2021/12/29 11:23:14;;;;;;;103.45;48.28;;;;;;;-0.12;82.26;98152.88;1707567;83;20997;-42
2021/12/29 11:25:43;;;;;;;94.58;47.25;;;;;;;-0.07;82.26;98151.84;1692635;84;21040;-40
2021/12/29 11:28:29;;;;;;;97.08;48.30;;;;;;;-0.05;82.11;98150.05;1714648;83;21697;-41